Time;durP1;ratioP1;P1;durP2;ratioP2;P2;SDS_P1;SDS_P2;PMS_P1;PMS_P2;Temp;Humidity;BMP_temperature;BMP_pressure;BME280_temperature;BME280_humidity;BME280_pressure;Samples;Min_cycle;Max_cycle;Signal;HPM_P1;HPM_P2
2022/07/12 00:00:13;;;;;;;17.45;16.65;;;;;;;-141.02;100.00;55844.97;5072736;28;20676;-74
2022/07/12 00:02:40;;;;;;;17.52;16.63;;;;;;;-141.02;100.00;55844.97;5073032;28;20198;-75
2022/07/12 00:05:08;;;;;;;18.15;17.25;;;;;;;-141.02;100.00;55844.97;5072693;28;20289;-75
2022/07/12 00:07:37;;;;;;;17.77;16.88;;;;;;;-141.02;100.00;55844.97;5072614;28;20677;-75
2022/07/12 00:10:05;;;;;;;17.75;16.85;;;;;;;-141.02;100.00;55844.97;5072604;28;20191;-75
2022/07/12 00:12:33;;;;;;;17.60;16.70;;;;;;;-141.02;100.00;55844.97;5072525;28;20194;-75
2022/07/12 00:15:00;;;;;;;17.90;17.00;;;;;;;-141.02;100.00;55844.97;5072535;28;20201;-74
2022/07/12 00:17:27;;;;;;;17.85;16.95;;;;;;;-141.02;100.00;55844.97;5072778;28;20282;-74
2022/07/12 00:19:54;;;;;;;17.92;17.02;;;;;;;-141.02;100.00;55844.97;5072492;28;20190;-74
2022/07/12 00:22:22;;;;;;;17.15;16.35;;;;;;;-141.02;100.00;55844.97;5072331;28;20233;-75
2022/07/12 00:24:50;;;;;;;17.27;16.48;;;;;;;-141.02;100.00;55844.97;5072644;28;20205;-75
2022/07/12 00:27:18;;;;;;;17.13;16.33;;;;;;;-141.02;100.00;55844.97;5072585;28;20272;-74
2022/07/12 00:29:45;;;;;;;17.20;16.40;;;;;;;-141.02;100.00;55844.97;5072250;28;20234;-74
2022/07/12 00:32:12;;;;;;;16.92;16.13;;;;;;;-141.02;100.00;55844.97;5072592;28;20202;-74
2022/07/12 00:34:39;;;;;;;16.95;16.15;;;;;;;-141.02;100.00;55844.97;5072209;28;20675;-75
2022/07/12 00:37:06;;;;;;;17.00;16.20;;;;;;;-141.02;100.00;55844.97;5072163;28;20202;-75
2022/07/12 00:39:33;;;;;;;16.60;15.80;;;;;;;-141.02;100.00;55844.97;5071543;28;20251;-75
2022/07/12 00:42:02;;;;;;;17.25;16.45;;;;;;;-141.02;100.00;55844.97;5072025;28;20669;-75
2022/07/12 00:44:30;;;;;;;17.00;16.20;;;;;;;-141.02;100.00;55844.97;5072117;28;20206;-75
2022/07/12 00:46:58;;;;;;;16.60;15.80;;;;;;;-141.02;100.00;55844.97;5072351;28;20194;-75
2022/07/12 00:49:25;;;;;;;17.10;16.30;;;;;;;-141.02;100.00;55844.97;5072094;28;20238;-75
2022/07/12 00:51:54;;;;;;;16.55;15.85;;;;;;;-141.02;100.00;55844.97;5072334;28;20195;-75
2022/07/12 00:54:21;;;;;;;16.33;15.63;;;;;;;-141.02;100.00;55844.97;5071978;28;20659;-75
2022/07/12 00:56:48;;;;;;;16.58;15.88;;;;;;;-141.02;100.00;55844.97;5071733;28;20238;-76
2022/07/12 00:59:17;;;;;;;16.20;15.50;;;;;;;-141.02;100.00;55844.97;5072238;28;20210;-75
2022/07/12 01:01:44;;;;;;;16.40;15.70;;;;;;;-141.02;100.00;55844.97;5071850;28;20222;-75
2022/07/12 01:04:11;;;;;;;16.20;15.50;;;;;;;-141.02;100.00;55844.97;5072191;28;20574;-75
2022/07/12 01:06:38;;;;;;;17.00;16.20;;;;;;;-141.02;100.00;55844.97;5071884;28;20198;-75
2022/07/12 01:09:07;;;;;;;16.83;16.13;;;;;;;-141.02;100.00;55844.97;5072923;28;20206;-75
2022/07/12 01:11:36;;;;;;;16.73;16.02;;;;;;;-141.02;100.00;55844.97;5072121;28;20675;-75
2022/07/12 01:14:03;;;;;;;16.87;16.17;;;;;;;-141.02;100.00;55844.97;5072043;28;20562;-75
2022/07/12 01:16:33;;;;;;;16.75;16.05;;;;;;;-141.02;100.00;55844.97;5072069;28;20281;-74
2022/07/12 01:19:01;;;;;;;16.80;16.00;;;;;;;-141.02;100.00;55844.97;5072878;28;20272;-74
2022/07/12 01:21:32;;;;;;;16.75;16.05;;;;;;;-141.02;100.00;55844.97;5071639;28;20232;-74
2022/07/12 01:24:02;;;;;;;16.95;16.15;;;;;;;-141.02;100.00;55844.97;5072035;28;20198;-74
2022/07/12 01:26:29;;;;;;;17.13;16.33;;;;;;;-141.02;100.00;55844.97;5072019;28;20198;-75
2022/07/12 01:28:58;;;;;;;16.88;16.08;;;;;;;-141.02;100.00;55844.97;5071597;28;20668;-74
2022/07/12 01:31:25;;;;;;;17.08;16.27;;;;;;;-141.02;100.00;55844.97;5071889;28;20198;-74
2022/07/12 01:33:53;;;;;;;17.15;16.35;;;;;;;-141.02;100.00;55844.97;5071622;28;20221;-75
2022/07/12 01:36:20;;;;;;;16.98;16.17;;;;;;;-141.02;100.00;55844.97;5071815;28;20252;-74
2022/07/12 01:38:47;;;;;;;17.20;16.40;;;;;;;-141.02;100.00;55844.97;5071820;28;20607;-74
2022/07/12 01:41:17;;;;;;;17.05;16.25;;;;;;;-141.02;100.00;55844.97;5071461;28;20226;-74
2022/07/12 01:43:44;;;;;;;17.45;16.65;;;;;;;-141.02;100.00;55844.97;5071569;28;20230;-74
2022/07/12 01:46:12;;;;;;;17.23;16.42;;;;;;;-141.02;100.00;55844.97;5071781;28;20248;-74
2022/07/12 01:48:39;;;;;;;17.30;16.50;;;;;;;-141.02;100.00;55844.97;5071792;28;20190;-74
2022/07/12 01:51:06;;;;;;;17.58;16.77;;;;;;;-141.02;100.00;55844.97;5073850;28;20704;-74
2022/07/12 01:53:34;;;;;;;16.90;16.10;;;;;;;-141.02;100.00;55844.97;5075543;28;20252;-74
2022/07/12 01:56:01;;;;;;;16.75;15.95;;;;;;;-141.02;100.00;55844.97;5074937;28;20283;-74
2022/07/12 01:58:31;;;;;;;16.90;16.10;;;;;;;-141.02;100.00;55844.97;5075391;28;20267;-73
2022/07/12 02:00:58;;;;;;;16.90;16.10;;;;;;;-141.02;100.00;55844.97;5075294;28;20198;-75
2022/07/12 02:03:26;;;;;;;17.27;16.48;;;;;;;-141.02;100.00;55844.97;5075019;28;20191;-75
2022/07/12 02:05:53;;;;;;;16.35;15.65;;;;;;;-141.02;100.00;55844.97;5075031;28;20206;-75
2022/07/12 02:08:20;;;;;;;16.10;15.40;;;;;;;-141.02;100.00;55844.97;5074963;28;20190;-75
2022/07/12 02:10:47;;;;;;;16.98;16.17;;;;;;;-141.02;100.00;55844.97;5075747;28;20244;-75
2022/07/12 02:13:14;;;;;;;16.65;15.85;;;;;;;-141.02;100.00;55844.97;5074916;28;20198;-74
2022/07/12 02:15:42;;;;;;;16.30;15.60;;;;;;;-141.02;100.00;55844.97;5075130;28;20281;-75
2022/07/12 02:18:09;;;;;;;17.30;16.50;;;;;;;-141.02;100.00;55844.97;5074747;28;20252;-75
2022/07/12 02:20:36;;;;;;;17.30;16.50;;;;;;;-141.02;100.00;55844.97;5075038;28;20256;-75
2022/07/12 02:23:03;;;;;;;17.55;16.75;;;;;;;-141.02;100.00;55844.97;5074936;28;20313;-75
2022/07/12 02:25:31;;;;;;;17.20;16.40;;;;;;;-141.02;100.00;55844.97;5074911;28;20618;-75
2022/07/12 02:27:58;;;;;;;16.10;15.40;;;;;;;-141.02;100.00;55844.97;5074530;28;20557;-75
2022/07/12 02:30:25;;;;;;;16.27;15.57;;;;;;;-141.02;100.00;55844.97;5074623;28;20255;-75
2022/07/12 02:32:54;;;;;;;16.35;15.60;;;;;;;-141.02;100.00;55844.97;5074499;28;20190;-75
2022/07/12 02:35:21;;;;;;;16.00;15.30;;;;;;;-141.02;100.00;55844.97;5074459;28;20208;-75
2022/07/12 02:37:48;;;;;;;15.82;15.13;;;;;;;-141.02;100.00;55844.97;5074701;28;20714;-76
2022/07/12 02:42:59;;;;;;;15.40;14.80;;;;;;;-141.02;100.00;55844.97;5074972;28;20287;-75
2022/07/12 02:45:26;;;;;;;15.40;14.80;;;;;;;-141.02;100.00;55844.97;5074323;28;20244;-75
2022/07/12 02:47:55;;;;;;;16.40;15.70;;;;;;;-141.02;100.00;55844.97;5074215;28;20229;-75
2022/07/12 02:50:22;;;;;;;16.45;15.75;;;;;;;-141.02;100.00;55844.97;5074463;28;20675;-75
2022/07/12 02:52:49;;;;;;;15.45;14.85;;;;;;;-141.02;100.00;55844.97;5074170;28;20281;-75
2022/07/12 02:55:16;;;;;;;16.00;15.30;;;;;;;-141.02;100.00;55844.97;5074406;28;20251;-75
2022/07/12 02:57:43;;;;;;;16.27;15.57;;;;;;;-141.02;100.00;55844.97;5073924;28;20222;-75
2022/07/12 03:00:12;;;;;;;16.70;16.00;;;;;;;-141.02;100.00;55844.97;5073993;28;20255;-75
2022/07/12 03:02:39;;;;;;;16.60;15.90;;;;;;;-141.02;100.00;55844.97;5073547;28;20265;-75
2022/07/12 03:05:09;;;;;;;16.33;15.63;;;;;;;-141.02;100.00;55844.97;5074253;28;20195;-75
2022/07/12 03:07:36;;;;;;;16.00;15.30;;;;;;;-141.02;100.00;55844.97;5074166;28;20273;-75
2022/07/12 03:10:04;;;;;;;15.85;15.15;;;;;;;-141.02;100.00;55844.97;5073842;28;20622;-75
2022/07/12 03:12:31;;;;;;;15.90;15.20;;;;;;;-141.02;100.00;55844.97;5074081;28;20230;-75
2022/07/12 03:14:58;;;;;;;15.32;14.73;;;;;;;-141.02;100.00;55844.97;5073694;28;20248;-75
2022/07/12 03:17:25;;;;;;;15.60;14.90;;;;;;;-141.02;100.00;55844.97;5073976;28;20581;-75
2022/07/12 03:19:52;;;;;;;15.60;14.90;;;;;;;-141.02;100.00;55844.97;5073914;28;20194;-76
2022/07/12 03:22:21;;;;;;;15.50;14.80;;;;;;;-141.02;100.00;55844.97;5073782;28;20276;-75
2022/07/12 03:24:48;;;;;;;15.35;14.65;;;;;;;-141.02;100.00;55844.97;5073468;28;21028;-76
2022/07/12 03:27:15;;;;;;;15.00;14.40;;;;;;;-141.02;100.00;55844.97;5073799;28;20657;-76
2022/07/12 03:29:42;;;;;;;15.65;14.95;;;;;;;-141.02;100.00;55844.97;5073670;28;20273;-76
2022/07/12 03:32:10;;;;;;;15.27;14.57;;;;;;;-141.02;100.00;55844.97;5073407;28;20245;-76
2022/07/12 03:34:37;;;;;;;15.50;14.85;;;;;;;-141.02;100.00;55844.97;5073670;28;20282;-76
2022/07/12 03:37:05;;;;;;;15.52;14.82;;;;;;;-141.02;100.00;55844.97;5073242;28;20194;-76
2022/07/12 03:39:33;;;;;;;15.57;14.88;;;;;;;-141.02;100.00;55844.97;5073271;28;20190;-76
2022/07/12 03:42:00;;;;;;;15.55;14.95;;;;;;;-141.02;100.00;55844.97;5073345;28;20253;-76
2022/07/12 03:44:30;;;;;;;15.68;14.98;;;;;;;-141.02;100.00;55844.97;5073129;28;20236;-76
2022/07/12 03:46:58;;;;;;;16.40;15.60;;;;;;;-141.02;100.00;55844.97;5073015;28;20199;-76
2022/07/12 03:49:25;;;;;;;17.00;16.20;;;;;;;-141.02;100.00;55844.97;5073019;28;20191;-76
2022/07/12 03:51:52;;;;;;;16.70;15.90;;;;;;;-141.02;100.00;55844.97;5073325;28;20232;-76
2022/07/12 03:54:19;;;;;;;16.80;15.95;;;;;;;-141.02;100.00;55844.97;5073172;28;20194;-76
2022/07/12 03:59:32;;;;;;;17.48;16.58;;;;;;;-141.02;100.00;55844.97;5073516;28;20747;-76
2022/07/12 04:01:59;;;;;;;17.40;16.48;;;;;;;-141.02;100.00;55844.97;5073024;28;20288;-76
2022/07/12 04:04:26;;;;;;;17.60;16.65;;;;;;;-141.02;100.00;55844.97;5072747;28;20228;-76
2022/07/12 04:06:53;;;;;;;18.20;17.20;;;;;;;-141.02;100.00;55844.97;5073045;28;20204;-76
2022/07/12 04:09:21;;;;;;;18.17;17.13;;;;;;;-141.02;100.00;55844.97;5072639;28;20248;-76
2022/07/12 04:11:50;;;;;;;18.20;17.10;;;;;;;-141.02;100.00;55844.97;5072936;28;20206;-77
2022/07/12 04:14:17;;;;;;;18.88;17.67;;;;;;;-141.02;100.00;55844.97;5072013;28;20273;-76
2022/07/12 04:16:44;;;;;;;19.13;17.92;;;;;;;-141.02;100.00;55844.97;5072830;28;20229;-76
2022/07/12 04:19:12;;;;;;;19.33;18.13;;;;;;;-141.02;100.00;55844.97;5072803;28;20221;-76
2022/07/12 04:21:40;;;;;;;18.85;17.75;;;;;;;-141.02;100.00;55844.97;5072340;28;20194;-76
2022/07/12 04:24:07;;;;;;;19.13;17.92;;;;;;;-141.02;100.00;55844.97;5072416;28;20248;-76
2022/07/12 04:26:34;;;;;;;18.92;17.73;;;;;;;-141.02;100.00;55844.97;5072351;28;20230;-76
2022/07/12 04:29:03;;;;;;;18.77;17.58;;;;;;;-141.02;100.00;55844.97;5072650;28;20294;-76
2022/07/12 04:31:30;;;;;;;18.92;17.73;;;;;;;-141.02;100.00;55844.97;5072305;28;20664;-76
2022/07/12 04:33:57;;;;;;;19.55;18.33;;;;;;;-141.02;100.00;55844.97;5072490;28;20730;-76
2022/07/12 04:36:24;;;;;;;19.20;18.00;;;;;;;-141.02;100.00;55844.97;5072599;28;20194;-76
2022/07/12 04:38:51;;;;;;;18.88;17.67;;;;;;;-141.02;100.00;55844.97;5072501;28;20190;-76
2022/07/12 04:41:18;;;;;;;19.05;17.85;;;;;;;-141.02;100.00;55844.97;5072476;28;20280;-76
2022/07/12 04:43:45;;;;;;;18.58;17.48;;;;;;;-141.02;100.00;55844.97;5072378;28;20256;-76
2022/07/12 04:46:13;;;;;;;18.35;17.25;;;;;;;-141.02;100.00;55844.97;5072079;28;20194;-76
2022/07/12 04:48:40;;;;;;;18.48;17.38;;;;;;;-141.02;100.00;55844.97;5072062;28;20666;-76
2022/07/12 04:51:08;;;;;;;19.98;18.60;;;;;;;-141.02;100.00;55844.97;5072307;28;20194;-76
2022/07/12 04:53:35;;;;;;;18.60;17.50;;;;;;;-141.02;100.00;55844.97;5072015;28;20668;-76
2022/07/12 04:56:02;;;;;;;18.30;17.30;;;;;;;-141.02;100.00;55844.97;5071984;28;20663;-76
2022/07/12 04:58:29;;;;;;;18.35;17.27;;;;;;;-141.02;100.00;55844.97;5072363;28;20186;-77
2022/07/12 05:00:56;;;;;;;17.77;16.77;;;;;;;-141.02;100.00;55844.97;5072279;28;20735;-76
2022/07/12 05:03:26;;;;;;;17.48;16.48;;;;;;;-141.02;100.00;55844.97;5071797;28;20656;-76
2022/07/12 05:05:54;;;;;;;17.65;16.67;;;;;;;-141.02;100.00;55844.97;5072194;28;20230;-76
2022/07/12 05:08:22;;;;;;;17.58;16.67;;;;;;;-141.02;100.00;55844.97;5071819;28;20201;-76
2022/07/12 05:10:49;;;;;;;17.73;16.73;;;;;;;-141.02;100.00;55844.97;5071950;28;20252;-76
2022/07/12 05:13:16;;;;;;;18.25;17.25;;;;;;;-141.02;100.00;55844.97;5072122;28;20232;-76
2022/07/12 05:15:43;;;;;;;17.80;16.80;;;;;;;-141.02;100.00;55844.97;5071814;28;20661;-76
2022/07/12 05:18:10;;;;;;;17.15;16.25;;;;;;;-141.02;100.00;55844.97;5071748;28;20190;-76
2022/07/12 05:20:39;;;;;;;17.55;16.58;;;;;;;-141.02;100.00;55844.97;5071751;28;20194;-76
2022/07/12 05:23:06;;;;;;;17.20;16.30;;;;;;;-141.02;100.00;55844.97;5071683;28;20708;-76
2022/07/12 05:25:33;;;;;;;17.38;16.48;;;;;;;-141.02;100.00;55844.97;5073365;28;20244;-76
2022/07/12 05:28:00;;;;;;;17.60;16.70;;;;;;;-141.02;100.00;55844.97;5075802;28;20202;-76
2022/07/12 05:30:27;;;;;;;17.50;16.60;;;;;;;-141.02;100.00;55844.97;5075706;28;20733;-77
2022/07/12 05:32:54;;;;;;;17.58;16.67;;;;;;;-141.02;100.00;55844.97;5075965;28;20279;-76
2022/07/12 05:35:21;;;;;;;25.73;24.25;;;;;;;-141.02;100.00;55844.97;5075637;28;20252;-76
2022/07/12 05:37:51;;;;;;;17.90;17.00;;;;;;;-141.02;100.00;55844.97;5075503;28;20198;-77
2022/07/12 05:40:18;;;;;;;17.80;16.90;;;;;;;-141.02;100.00;55844.97;5075833;28;20194;-77
2022/07/12 05:42:46;;;;;;;18.27;17.38;;;;;;;-141.02;100.00;55844.97;5075344;28;20692;-76
2022/07/12 05:45:13;;;;;;;17.65;16.75;;;;;;;-141.02;100.00;55844.97;5075730;28;20653;-76
2022/07/12 05:47:40;;;;;;;17.40;16.50;;;;;;;-141.02;100.00;55844.97;5075686;28;20695;-77
2022/07/12 05:50:08;;;;;;;17.63;16.73;;;;;;;-141.02;100.00;55844.97;5075312;28;20234;-76
2022/07/12 05:55:21;;;;;;;17.55;16.65;;;;;;;-141.02;100.00;55844.97;5075400;28;20198;-76
2022/07/12 05:57:48;;;;;;;18.02;17.13;;;;;;;-141.02;100.00;55844.97;5075051;28;20704;-77
2022/07/12 06:00:15;;;;;;;17.60;16.60;;;;;;;-141.02;100.00;55844.97;5075415;28;20721;-77
2022/07/12 06:02:42;;;;;;;17.85;16.85;;;;;;;-141.02;100.00;55844.97;5075380;28;20226;-77
2022/07/12 06:05:10;;;;;;;17.48;16.50;;;;;;;-141.02;100.00;55844.97;5075023;28;20234;-77
2022/07/12 06:07:37;;;;;;;18.20;17.20;;;;;;;-141.02;100.00;55844.97;5075323;28;20191;-77
2022/07/12 06:10:05;;;;;;;18.20;17.20;;;;;;;-141.02;100.00;55844.97;5075256;28;20202;-77
2022/07/12 06:12:33;;;;;;;18.85;17.85;;;;;;;-141.02;100.00;55844.97;5075159;28;20696;-78
2022/07/12 06:15:02;;;;;;;18.85;17.85;;;;;;;-141.02;100.00;55844.97;5075137;28;20556;-78
2022/07/12 06:17:29;;;;;;;18.65;17.65;;;;;;;-141.02;100.00;55844.97;5074837;28;20199;-78
2022/07/12 06:19:56;;;;;;;18.60;17.60;;;;;;;-141.02;100.00;55844.97;5075084;28;20202;-77
2022/07/12 06:22:23;;;;;;;19.63;18.63;;;;;;;-141.02;100.00;55844.97;5074677;28;20231;-76
2022/07/12 06:24:50;;;;;;;19.30;18.30;;;;;;;-141.02;100.00;55844.97;5075026;28;20202;-76
2022/07/12 06:27:17;;;;;;;18.33;17.42;;;;;;;-141.02;100.00;55844.97;5075009;28;20194;-80
2022/07/12 06:29:47;;;;;;;18.15;17.25;;;;;;;-141.02;100.00;55844.97;5074875;28;20263;-78
2022/07/12 06:32:15;;;;;;;19.48;18.48;;;;;;;-141.02;100.00;55844.97;5074934;28;20190;-80
2022/07/12 06:34:42;;;;;;;19.17;18.17;;;;;;;-141.02;100.00;55844.97;5074792;28;20285;-79
2022/07/12 06:37:09;;;;;;;18.58;17.58;;;;;;;-141.02;100.00;55844.97;5073758;28;20278;-78
2022/07/12 06:39:37;;;;;;;19.58;18.58;;;;;;;-141.02;100.00;55844.97;5074747;28;20251;-78
2022/07/12 06:42:05;;;;;;;21.10;20.00;;;;;;;-141.02;100.00;55844.97;5074642;28;20195;-77
2022/07/12 06:44:32;;;;;;;19.65;18.55;;;;;;;-141.02;100.00;55844.97;5074297;28;20604;-78
2022/07/12 06:47:02;;;;;;;19.98;18.88;;;;;;;-141.02;100.00;55844.97;5074268;28;20577;-74
2022/07/12 06:49:29;;;;;;;20.40;19.30;;;;;;;-141.02;100.00;55844.97;5074609;28;20201;-77
2022/07/12 06:51:56;;;;;;;19.55;18.55;;;;;;;-141.02;100.00;55844.97;5074129;28;20191;-79
2022/07/12 06:54:23;;;;;;;19.67;18.58;;;;;;;-141.02;100.00;55844.97;5074242;28;20202;-81
2022/07/12 06:56:50;;;;;;;19.33;18.33;;;;;;;-141.02;100.00;55844.97;5073919;28;20237;-78
2022/07/12 06:59:17;;;;;;;19.65;18.65;;;;;;;-141.02;100.00;55844.97;5074096;28;20244;-76
2022/07/12 07:01:44;;;;;;;20.05;19.00;;;;;;;-141.02;100.00;55844.97;5074088;28;20228;-76
2022/07/12 07:04:13;;;;;;;20.25;19.15;;;;;;;-141.02;100.00;55844.97;5074137;28;20234;-77
2022/07/12 07:06:40;;;;;;;20.52;19.42;;;;;;;-141.02;100.00;55844.97;5073959;28;20740;-82
2022/07/12 07:09:07;;;;;;;20.90;19.75;;;;;;;-141.02;100.00;55844.97;5074147;28;20551;-77
2022/07/12 07:11:36;;;;;;;20.60;19.40;;;;;;;-141.02;100.00;55844.97;5073845;28;20680;-76
2022/07/12 07:14:04;;;;;;;21.00;19.80;;;;;;;-141.02;100.00;55844.97;5074044;28;20194;-77
2022/07/12 07:16:31;;;;;;;21.08;19.88;;;;;;;-141.02;100.00;55844.97;5073998;28;20202;-78
2022/07/12 07:18:58;;;;;;;20.27;19.08;;;;;;;-141.02;100.00;55844.97;5073886;28;20202;-78
2022/07/12 07:21:27;;;;;;;20.63;19.42;;;;;;;-141.02;100.00;55844.97;5073947;28;20194;-77
2022/07/12 07:23:54;;;;;;;20.35;19.15;;;;;;;-141.02;100.00;55844.97;5073766;28;20230;-77
2022/07/12 07:26:21;;;;;;;19.85;18.65;;;;;;;-141.02;100.00;55844.97;5073806;28;20202;-79
2022/07/12 07:31:35;;;;;;;20.35;19.15;;;;;;;-141.02;100.00;55844.97;5073843;28;20182;-76
2022/07/12 07:34:02;;;;;;;18.92;17.83;;;;;;;-141.02;100.00;55844.97;5073612;28;20268;-80
2022/07/12 07:36:31;;;;;;;19.90;18.70;;;;;;;-141.02;100.00;55844.97;5073633;28;20195;-76
2022/07/12 07:38:59;;;;;;;20.15;18.95;;;;;;;-141.02;100.00;55844.97;5073309;28;20285;-79
2022/07/12 07:41:26;;;;;;;20.00;18.80;;;;;;;-141.02;100.00;55844.97;5073226;28;20209;-79
2022/07/12 07:43:53;;;;;;;20.48;19.27;;;;;;;-141.02;100.00;55844.97;5073384;28;20630;-79
2022/07/12 07:46:20;;;;;;;19.83;18.63;;;;;;;-141.02;100.00;55844.97;5073491;28;20256;-79
2022/07/12 07:48:47;;;;;;;20.42;19.23;;;;;;;-141.02;100.00;55844.97;5072915;28;20244;-79
2022/07/12 07:51:15;;;;;;;20.38;19.17;;;;;;;-141.02;100.00;55844.97;5073086;28;20645;-77
2022/07/12 07:53:43;;;;;;;19.73;18.52;;;;;;;-141.02;100.00;55844.97;5073102;28;20202;-77
2022/07/12 07:56:10;;;;;;;19.85;18.65;;;;;;;-141.02;100.00;55844.97;5072713;28;20234;-79
2022/07/12 07:58:37;;;;;;;21.10;19.80;;;;;;;-141.02;100.00;55844.97;5073171;28;20195;-77
2022/07/12 08:01:05;;;;;;;20.70;19.40;;;;;;;-141.02;100.00;55844.97;5073140;28;20195;-78
2022/07/12 08:03:33;;;;;;;22.85;21.45;;;;;;;-141.02;100.00;55844.97;5072815;28;20218;-74
2022/07/12 08:06:00;;;;;;;22.42;21.02;;;;;;;-141.02;100.00;55844.97;5073172;28;20263;-83
2022/07/12 08:08:28;;;;;;;21.58;20.27;;;;;;;-141.02;100.00;55844.97;5073080;28;20202;-78
2022/07/12 08:10:57;;;;;;;21.45;20.15;;;;;;;-141.02;100.00;55844.97;5072983;28;20274;-78
2022/07/12 08:13:24;;;;;;;22.13;20.83;;;;;;;-141.02;100.00;55844.97;5072539;28;20631;-79
2022/07/12 08:15:51;;;;;;;22.48;21.17;;;;;;;-141.02;100.00;55844.97;5072937;28;20194;-79
2022/07/12 08:18:18;;;;;;;21.40;20.13;;;;;;;-141.02;100.00;55844.97;5072829;28;20277;-78
2022/07/12 08:20:45;;;;;;;21.73;20.42;;;;;;;-141.02;100.00;55844.97;5072864;28;20286;-78
2022/07/12 08:23:13;;;;;;;21.35;20.05;;;;;;;-141.02;100.00;55844.97;5072652;28;20225;-78
2022/07/12 08:25:40;;;;;;;22.83;21.42;;;;;;;-141.02;55.19;82265.56;5072348;28;20202;-77
2022/07/12 08:28:08;;;;;;;22.20;20.83;;;;;;;-141.02;56.94;82300.53;5072398;28;20225;-77
2022/07/12 08:30:36;;;;;;;22.02;20.73;;;;;;;-141.02;56.48;82316.06;5072761;28;20198;-77
2022/07/12 08:33:03;;;;;;;20.95;19.65;;;;;;;-141.02;56.48;55844.97;5072609;28;20238;-80
2022/07/12 08:35:30;;;;;;;21.30;20.00;;;;;;;-141.02;100.00;55844.97;5072553;28;20195;-77
2022/07/12 08:37:57;;;;;;;21.17;19.88;;;;;;;-141.02;100.00;55844.97;5072198;28;20256;-77
2022/07/12 08:40:24;;;;;;;19.77;18.58;;;;;;;-141.02;100.00;55844.97;5072509;28;20217;-77
2022/07/12 08:42:51;;;;;;;22.90;21.50;;;;;;;-141.02;100.00;55844.97;5072234;28;20226;-78
2022/07/12 08:45:20;;;;;;;21.65;20.35;;;;;;;-141.02;100.00;55844.97;5072079;28;20226;-78
2022/07/12 08:47:47;;;;;;;19.10;17.90;;;;;;;-141.02;100.00;55844.97;5072357;28;20256;-79
2022/07/12 08:50:16;;;;;;;21.17;19.88;;;;;;;-141.02;100.00;55844.97;5072344;28;20248;-78
2022/07/12 08:52:46;;;;;;;22.02;20.73;;;;;;;-141.02;100.00;55844.97;5072346;28;20202;-79
2022/07/12 08:55:21;;;;;;;22.85;21.45;;;;;;;-141.02;100.00;55844.97;5071962;28;20205;-79
2022/07/12 08:57:49;;;;;;;20.52;19.23;;;;;;;-141.02;100.00;55844.97;5071889;28;20316;-76
2022/07/12 09:00:16;;;;;;;20.98;19.67;;;;;;;-141.02;100.00;55844.97;5071636;28;20244;-78
2022/07/12 09:02:53;;;;;;;20.45;19.15;;;;;;;-141.02;100.00;55844.97;5072031;28;20248;-75
2022/07/12 09:05:21;;;;;;;20.50;19.20;;;;;;;-141.02;100.00;55844.97;5072194;28;20213;-73
2022/07/12 09:07:49;;;;;;;20.20;18.95;;;;;;;-141.02;100.00;55844.97;5071870;28;20197;-77
2022/07/12 09:10:16;;;;;;;20.17;18.98;;;;;;;-141.02;100.00;55844.97;5072171;28;20256;-79
2022/07/12 09:12:44;;;;;;;20.17;18.90;;;;;;;-141.02;100.00;55844.97;5071959;28;20209;-78
2022/07/12 09:15:20;;;;;;;19.73;18.52;;;;;;;-141.02;100.00;55844.97;5071810;28;20198;-78
2022/07/12 09:17:57;;;;;;;20.50;19.20;;;;;;;-141.02;100.00;55844.97;5071873;28;20562;-76
2022/07/12 09:20:26;;;;;;;20.92;19.63;;;;;;;-141.02;100.00;55844.97;5072127;28;20194;-76
2022/07/12 09:22:55;;;;;;;19.35;18.05;;;;;;;-141.02;100.00;55844.97;5071772;28;20248;-79
2022/07/12 09:25:22;;;;;;;19.17;17.98;;;;;;;-141.02;100.00;55844.97;5071666;28;20270;-77
2022/07/12 09:27:52;;;;;;;20.58;19.27;;;;;;;-141.02;100.00;55844.97;5071984;28;20244;-77
2022/07/12 09:30:20;;;;;;;20.20;18.90;;;;;;;-141.02;100.00;55844.97;5071688;28;20194;-78
2022/07/12 09:38:26;;;;;;;21.70;20.30;;;;;;;-141.02;100.00;55844.97;5072057;28;20567;-78
2022/07/12 09:40:55;;;;;;;21.85;20.55;;;;;;;-141.02;100.00;55844.97;5071596;28;20268;-77
2022/07/12 09:43:23;;;;;;;21.38;20.08;;;;;;;-141.02;100.00;55844.97;5071794;28;20217;-76
2022/07/12 09:45:51;;;;;;;22.15;20.75;;;;;;;-141.02;100.00;55844.97;5071873;28;20282;-75
2022/07/12 09:48:20;;;;;;;23.25;21.00;;;;;;;-141.02;100.00;55844.97;5071823;28;20259;-79
2022/07/12 09:50:50;;;;;;;22.20;20.80;;;;;;;-141.02;100.00;55844.97;5071999;28;20190;-77
2022/07/12 09:53:25;;;;;;;21.80;20.40;;;;;;;-141.02;100.00;55844.97;5071492;28;20661;-74
2022/07/12 09:55:53;;;;;;;21.80;20.40;;;;;;;-141.02;100.00;55844.97;5071276;28;20624;-76
2022/07/12 09:58:24;;;;;;;20.95;19.55;;;;;;;-141.02;100.00;55844.97;5071798;28;20214;-76
2022/07/12 10:00:54;;;;;;;20.50;19.20;;;;;;;-141.02;100.00;55844.97;5071721;28;20186;-77
2022/07/12 10:03:25;;;;;;;20.60;19.30;;;;;;;-141.02;100.00;55844.97;5071324;28;20191;-76
2022/07/12 10:05:55;;;;;;;21.08;19.67;;;;;;;-141.02;100.00;55844.97;5071369;28;20226;-77
2022/07/12 10:08:23;;;;;;;21.00;19.60;;;;;;;-141.02;100.00;55844.97;5071399;28;20756;-77
2022/07/12 10:10:51;;;;;;;20.77;19.48;;;;;;;-141.02;100.00;55844.97;5071780;28;20194;-77
2022/07/12 10:13:20;;;;;;;20.40;19.10;;;;;;;-141.02;100.00;55844.97;5075220;28;20206;-79
2022/07/12 10:15:49;;;;;;;21.08;19.67;;;;;;;-141.02;100.00;55844.97;5074914;28;20660;-73
2022/07/12 10:18:18;;;;;;;21.38;19.98;;;;;;;-141.02;100.00;55844.97;5075078;28;20256;-77
2022/07/12 10:20:46;;;;;;;21.13;19.73;;;;;;;-141.02;100.00;55844.97;5074793;28;20204;-76
2022/07/12 10:23:37;;;;;;;20.60;19.30;;;;;;;-141.02;100.00;55844.97;5075064;28;20226;-77
2022/07/12 10:26:40;;;;;;;20.88;19.48;;;;;;;-141.02;100.00;55844.97;5075093;28;20273;-78
2022/07/12 10:29:09;;;;;;;20.23;18.92;;;;;;;-141.02;100.00;55844.97;5074970;28;20183;-76
2022/07/12 10:31:37;;;;;;;20.20;18.90;;;;;;;-141.02;100.00;55844.97;5074864;28;20282;-75
2022/07/12 10:34:15;;;;;;;20.27;18.98;;;;;;;-141.02;100.00;55844.97;5074809;28;20202;-75
2022/07/12 10:37:11;;;;;;;20.63;19.27;;;;;;;-141.02;100.00;55844.97;5074491;28;20194;-78
2022/07/12 10:39:40;;;;;;;20.65;19.35;;;;;;;-141.02;100.00;55844.97;5074506;28;20187;-75
2022/07/12 10:42:18;;;;;;;20.25;18.95;;;;;;;-141.02;100.00;55844.97;5074766;28;20241;-76
2022/07/12 10:44:47;;;;;;;20.15;18.85;;;;;;;-141.02;100.00;55844.97;5074526;28;20226;-77
2022/07/12 10:47:18;;;;;;;19.83;18.52;;;;;;;-141.02;100.00;55844.97;5074646;28;20226;-73
2022/07/12 10:49:49;;;;;;;20.23;18.92;;;;;;;-141.02;100.00;55844.97;5074295;28;20252;-77
2022/07/12 10:52:18;;;;;;;21.15;19.30;;;;;;;-141.02;100.00;55844.97;5074266;28;20218;-75
2022/07/12 10:55:19;;;;;;;21.17;19.77;;;;;;;-141.02;100.00;55844.97;5074474;28;20224;-77
2022/07/12 10:57:50;;;;;;;20.70;19.40;;;;;;;-141.02;100.00;55844.97;5073968;28;20253;-75
2022/07/12 11:00:19;;;;;;;20.48;19.17;;;;;;;-141.02;100.00;55844.97;5074406;28;20193;-77
2022/07/12 11:02:46;;;;;;;20.52;19.17;;;;;;;-141.02;100.00;55844.97;5074104;28;20205;-76
2022/07/12 11:05:13;;;;;;;20.25;18.95;;;;;;;-141.02;100.00;55844.97;5073869;28;20680;-78
2022/07/12 11:07:41;;;;;;;20.38;19.08;;;;;;;-141.02;100.00;55844.97;5073982;28;20226;-76
2022/07/12 11:10:13;;;;;;;19.90;18.60;;;;;;;-141.02;100.00;55844.97;5074092;28;20543;-77
2022/07/12 11:12:40;;;;;;;20.08;18.77;;;;;;;-141.02;100.00;55844.97;5074816;28;20191;-76
2022/07/12 11:15:08;;;;;;;20.35;18.95;;;;;;;-141.02;100.00;55844.97;5073781;28;20286;-76